Strona główna
METAR-TAF:

METAR-TAF

Lotnisko :

Branch County Memorial Airport

Coldwater, Michigan, Stany Zjednoczone

Szerokość geograficzna: 41-56N, Długość geograficzna: 085-03-09W, wysokość: 292 m

Aktualna obserwacja pogody

Raport powstał 10 minut temu, godzina 13:56 UTC
Wiatr 8 kt od zachód
Temperatura -2°C
Wilgotność 80%
Ciśnienie 1016 hPa
Widzialność: 16.1 km
Zachmurzenie całkowite na wysokości 2900 ft

METAR: KOEB 151356Z AUTO 26008KT 10SM OVC029 M02/M05 A3001 RMK AO2 T10251050

czas: 09:06 (14:06 UTC)


TAF: brakujący

Obserwacja i prognoza pogody dla ponad 4000 lotnisk (raport METAR i TAF).

Dostępne stacje oznaczono żółtymi i czerwonymi punktami na mapie.

Najedź kursorem aby zobaczyć nazwę stacji.

Kliknij aby zobaczyć obserwacje i prognozy pogody.

Aby zmienić mapę: kliknij na zielony przycisk z czarnym krzyżykiem, aby powiększyć; na zielony przycisk z myślnikiem, aby pomniejszyć; na zielone strzałki, aby przejść do map sąsiednich.


METAR-TAF: